sensor_id;sensor_type;location;lat;lon;timestamp;pressure;altitude;pressure_sealevel;temperature;humidity
53647;BME280;39550;52.230;5.194;2022-11-03T00:01:36;101222.44;;;11.58;76.02
53647;BME280;39550;52.230;5.194;2022-11-03T00:04:03;101206.94;;;11.58;75.56
53647;BME280;39550;52.230;5.194;2022-11-03T00:06:28;101207.84;;;11.59;75.72
53647;BME280;39550;52.230;5.194;2022-11-03T00:08:57;101200.91;;;11.56;76.14
53647;BME280;39550;52.230;5.194;2022-11-03T00:11:23;101196.59;;;11.55;75.97
53647;BME280;39550;52.230;5.194;2022-11-03T00:13:48;101188.00;;;11.56;75.81
53647;BME280;39550;52.230;5.194;2022-11-03T00:16:13;101181.97;;;11.56;76.22
53647;BME280;39550;52.230;5.194;2022-11-03T00:18:39;101169.94;;;11.55;75.89
53647;BME280;39550;52.230;5.194;2022-11-03T00:21:06;101171.69;;;11.57;76.02
53647;BME280;39550;52.230;5.194;2022-11-03T00:23:34;101163.03;;;11.54;76.02
53647;BME280;39550;52.230;5.194;2022-11-03T00:26:17;101163.88;;;11.54;76.25
53647;BME280;39550;52.230;5.194;2022-11-03T00:28:45;101164.75;;;11.53;75.71
53647;BME280;39550;52.230;5.194;2022-11-03T00:31:16;101171.63;;;11.54;76.05
53647;BME280;39550;52.230;5.194;2022-11-03T00:33:42;101164.75;;;11.53;76.32
53647;BME280;39550;52.230;5.194;2022-11-03T00:36:13;101163.88;;;11.54;76.17
53647;BME280;39550;52.230;5.194;2022-11-03T00:38:40;101162.19;;;11.53;75.76
53647;BME280;39550;52.230;5.194;2022-11-03T00:41:06;101160.44;;;11.52;75.61
53647;BME280;39550;52.230;5.194;2022-11-03T00:43:33;101155.28;;;11.52;76.11
53647;BME280;39550;52.230;5.194;2022-11-03T00:45:59;101155.28;;;11.52;75.98
53647;BME280;39550;52.230;5.194;2022-11-03T00:48:25;101157.88;;;11.52;75.76
53647;BME280;39550;52.230;5.194;2022-11-03T00:50:59;101163.88;;;11.51;76.32
53647;BME280;39550;52.230;5.194;2022-11-03T00:53:24;101156.97;;;11.49;75.78
53647;BME280;39550;52.230;5.194;2022-11-03T00:55:49;101159.56;;;11.52;76.05
53647;BME280;39550;52.230;5.194;2022-11-03T00:58:15;101154.38;;;11.50;76.34
53647;BME280;39550;52.230;5.194;2022-11-03T01:00:40;101158.69;;;11.48;75.75
53647;BME280;39550;52.230;5.194;2022-11-03T01:03:05;101147.47;;;11.48;76.00
53647;BME280;39550;52.230;5.194;2022-11-03T01:05:31;101143.19;;;11.48;75.93
53647;BME280;39550;52.230;5.194;2022-11-03T01:08:15;101132.88;;;11.48;76.23
53647;BME280;39550;52.230;5.194;2022-11-03T01:10:40;101136.31;;;11.47;76.25
53647;BME280;39550;52.230;5.194;2022-11-03T01:13:26;101131.13;;;11.44;76.38
53647;BME280;39550;52.230;5.194;2022-11-03T01:15:55;101131.97;;;11.46;75.63
53647;BME280;39550;52.230;5.194;2022-11-03T01:18:21;101124.25;;;11.46;75.98
53647;BME280;39550;52.230;5.194;2022-11-03T01:20:46;101133.69;;;11.44;76.17
53647;BME280;39550;52.230;5.194;2022-11-03T01:23:11;101129.41;;;11.45;75.84
53647;BME280;39550;52.230;5.194;2022-11-03T01:25:36;101127.69;;;11.45;76.14
53647;BME280;39550;52.230;5.194;2022-11-03T01:28:02;101118.22;;;11.43;76.01
53647;BME280;39550;52.230;5.194;2022-11-03T01:30:27;101119.97;;;11.47;76.02
53647;BME280;39550;52.230;5.194;2022-11-03T01:32:52;101113.91;;;11.46;76.19
53647;BME280;39550;52.230;5.194;2022-11-03T01:35:18;101118.22;;;11.44;76.34
53647;BME280;39550;52.230;5.194;2022-11-03T01:37:43;101118.22;;;11.44;76.15
53647;BME280;39550;52.230;5.194;2022-11-03T01:40:09;101113.06;;;11.44;76.19
53647;BME280;39550;52.230;5.194;2022-11-03T01:42:34;101098.41;;;11.43;75.79
53647;BME280;39550;52.230;5.194;2022-11-03T01:45:00;101101.00;;;11.43;76.16
53647;BME280;39550;52.230;5.194;2022-11-03T01:47:26;101094.09;;;11.44;76.08
53647;BME280;39550;52.230;5.194;2022-11-03T01:50:00;101095.84;;;11.43;76.23
53647;BME280;39550;52.230;5.194;2022-11-03T01:55:01;101086.34;;;11.39;76.27
53647;BME280;39550;52.230;5.194;2022-11-03T01:57:34;101087.22;;;11.41;76.48
53647;BME280;39550;52.230;5.194;2022-11-03T02:00:02;101072.59;;;11.40;76.56
53647;BME280;39550;52.230;5.194;2022-11-03T02:02:29;101070.84;;;11.39;76.10
53647;BME280;39550;52.230;5.194;2022-11-03T02:04:56;101057.09;;;11.37;76.54
53647;BME280;39550;52.230;5.194;2022-11-03T02:07:55;101052.75;;;11.31;76.72
53647;BME280;39550;52.230;5.194;2022-11-03T02:10:18;101059.69;;;11.38;76.18
53647;BME280;39550;52.230;5.194;2022-11-03T02:12:44;101065.69;;;11.39;76.40
53647;BME280;39550;52.230;5.194;2022-11-03T02:17:45;101041.53;;;11.29;76.74
53647;BME280;39550;52.230;5.194;2022-11-03T02:20:18;101029.47;;;11.25;76.49
53647;BME280;39550;52.230;5.194;2022-11-03T02:25:50;101044.19;;;11.35;76.46
53647;BME280;39550;52.230;5.194;2022-11-03T02:28:22;101048.47;;;11.38;76.36
53647;BME280;39550;52.230;5.194;2022-11-03T02:33:45;101017.47;;;11.27;76.25
53647;BME280;39550;52.230;5.194;2022-11-03T02:36:33;101041.63;;;11.37;76.52
53647;BME280;39550;52.230;5.194;2022-11-03T02:39:15;101014.00;;;11.30;76.75
53647;BME280;39550;52.230;5.194;2022-11-03T02:41:44;101024.41;;;11.39;76.34
53647;BME280;39550;52.230;5.194;2022-11-03T02:44:14;101015.81;;;11.37;76.36
53647;BME280;39550;52.230;5.194;2022-11-03T02:46:42;100936.31;;;10.86;76.27
53647;BME280;39550;52.230;5.194;2022-11-03T02:49:08;101010.66;;;11.37;76.15
53647;BME280;39550;52.230;5.194;2022-11-03T02:51:33;100991.63;;;11.25;76.62
53647;BME280;39550;52.230;5.194;2022-11-03T02:56:29;100972.69;;;11.17;76.57
53647;BME280;39550;52.230;5.194;2022-11-03T02:59:01;100989.09;;;11.30;76.73
53647;BME280;39550;52.230;5.194;2022-11-03T03:01:36;100991.69;;;11.32;76.61
53647;BME280;39550;52.230;5.194;2022-11-03T03:04:13;100973.53;;;11.18;76.63
53647;BME280;39550;52.230;5.194;2022-11-03T03:06:53;100906.19;;;10.81;76.82
53647;BME280;39550;52.230;5.194;2022-11-03T03:09:24;100983.94;;;11.29;76.95
53647;BME280;39550;52.230;5.194;2022-11-03T03:11:52;100889.88;;;10.82;76.33
53647;BME280;39550;52.230;5.194;2022-11-03T03:14:23;100959.78;;;11.19;76.65
53647;BME280;39550;52.230;5.194;2022-11-03T03:16:58;100908.88;;;10.95;76.54
53647;BME280;39550;52.230;5.194;2022-11-03T03:19:41;100957.31;;;11.33;76.33
53647;BME280;39550;52.230;5.194;2022-11-03T03:22:36;100944.31;;;11.22;76.73
53647;BME280;39550;52.230;5.194;2022-11-03T03:25:14;100899.50;;;11.07;76.52
53647;BME280;39550;52.230;5.194;2022-11-03T03:27:47;100940.09;;;11.32;76.68
53647;BME280;39550;52.230;5.194;2022-11-03T03:30:13;100888.28;;;10.98;76.67
53647;BME280;39550;52.230;5.194;2022-11-03T03:32:45;100946.94;;;11.30;76.49
53647;BME280;39550;52.230;5.194;2022-11-03T03:35:15;100892.59;;;11.02;76.22
53647;BME280;39550;52.230;5.194;2022-11-03T03:37:47;100936.63;;;11.30;76.56
53647;BME280;39550;52.230;5.194;2022-11-03T03:40:18;100922.88;;;11.28;76.88
53647;BME280;39550;52.230;5.194;2022-11-03T03:42:46;100928.88;;;11.27;76.82
53647;BME280;39550;52.230;5.194;2022-11-03T03:45:12;100923.72;;;11.28;76.54
53647;BME280;39550;52.230;5.194;2022-11-03T03:47:38;100900.47;;;11.17;76.59
53647;BME280;39550;52.230;5.194;2022-11-03T03:50:04;100909.06;;;11.25;76.72
53647;BME280;39550;52.230;5.194;2022-11-03T03:52:33;100907.38;;;11.28;76.73
53647;BME280;39550;52.230;5.194;2022-11-03T03:54:59;100891.84;;;11.18;77.14
53647;BME280;39550;52.230;5.194;2022-11-03T03:57:26;100921.13;;;11.30;77.01
53647;BME280;39550;52.230;5.194;2022-11-03T03:59:52;100913.41;;;11.28;76.86
53647;BME280;39550;52.230;5.194;2022-11-03T04:02:18;100902.22;;;11.23;77.15
53647;BME280;39550;52.230;5.194;2022-11-03T04:04:43;100905.63;;;11.23;77.02
53647;BME280;39550;52.230;5.194;2022-11-03T04:07:08;100847.00;;;10.92;76.62
53647;BME280;39550;52.230;5.194;2022-11-03T04:09:52;100908.25;;;11.28;76.92
53647;BME280;39550;52.230;5.194;2022-11-03T04:12:18;100868.53;;;11.04;77.11
53647;BME280;39550;52.230;5.194;2022-11-03T04:15:02;100895.31;;;11.20;77.17
53647;BME280;39550;52.230;5.194;2022-11-03T04:17:47;100894.44;;;11.21;76.94
53647;BME280;39550;52.230;5.194;2022-11-03T04:20:32;100889.28;;;11.21;77.14
53647;BME280;39550;52.230;5.194;2022-11-03T04:23:16;100864.28;;;11.11;77.01
53647;BME280;39550;52.230;5.194;2022-11-03T04:25:53;100872.06;;;11.16;76.79
53647;BME280;39550;52.230;5.194;2022-11-03T04:28:20;100885.00;;;11.27;77.21
53647;BME280;39550;52.230;5.194;2022-11-03T04:30:46;100882.44;;;11.27;76.92
53647;BME280;39550;52.230;5.194;2022-11-03T04:33:14;100866.06;;;11.21;76.80
53647;BME280;39550;52.230;5.194;2022-11-03T04:35:41;100872.94;;;11.22;76.93
53647;BME280;39550;52.230;5.194;2022-11-03T04:40:51;100866.97;;;11.27;77.08
53647;BME280;39550;52.230;5.194;2022-11-03T04:43:19;100862.63;;;11.16;76.72
53647;BME280;39550;52.230;5.194;2022-11-03T04:45:46;100864.38;;;11.22;77.05
53647;BME280;39550;52.230;5.194;2022-11-03T04:48:18;100875.53;;;11.25;77.39
53647;BME280;39550;52.230;5.194;2022-11-03T04:50:46;100850.56;;;11.12;77.21
53647;BME280;39550;52.230;5.194;2022-11-03T04:53:15;100864.38;;;11.27;76.93
53647;BME280;39550;52.230;5.194;2022-11-03T04:55:42;100845.41;;;11.12;77.32
53647;BME280;39550;52.230;5.194;2022-11-03T04:58:26;100867.81;;;11.25;76.75
53647;BME280;39550;52.230;5.194;2022-11-03T05:00:55;100800.56;;;10.88;77.28
53647;BME280;39550;52.230;5.194;2022-11-03T05:03:23;100837.66;;;11.09;77.21
53647;BME280;39550;52.230;5.194;2022-11-03T05:05:49;100848.00;;;11.18;77.32
53647;BME280;39550;52.230;5.194;2022-11-03T05:08:17;100856.63;;;11.25;77.37
53647;BME280;39550;52.230;5.194;2022-11-03T05:10:43;100856.63;;;11.22;77.22
53647;BME280;39550;52.230;5.194;2022-11-03T05:13:19;100798.00;;;10.92;77.08
53647;BME280;39550;52.230;5.194;2022-11-03T05:15:46;100847.16;;;11.22;77.53
53647;BME280;39550;52.230;5.194;2022-11-03T05:18:19;100840.25;;;11.21;77.38
53647;BME280;39550;52.230;5.194;2022-11-03T05:20:50;100830.84;;;11.23;77.57
53647;BME280;39550;52.230;5.194;2022-11-03T05:23:17;100792.91;;;11.02;77.10
53647;BME280;39550;52.230;5.194;2022-11-03T05:25:45;100809.28;;;11.12;77.68
53647;BME280;39550;52.230;5.194;2022-11-03T05:28:38;100701.56;;;10.52;77.52
53647;BME280;39550;52.230;5.194;2022-11-03T05:31:34;100825.69;;;11.23;77.05
53647;BME280;39550;52.230;5.194;2022-11-03T05:34:11;100759.34;;;10.92;77.55
53647;BME280;39550;52.230;5.194;2022-11-03T05:36:40;100692.94;;;10.50;77.54
53647;BME280;39550;52.230;5.194;2022-11-03T05:39:28;100768.81;;;10.99;77.29
53647;BME280;39550;52.230;5.194;2022-11-03T05:41:54;100775.72;;;11.06;77.18
53647;BME280;39550;52.230;5.194;2022-11-03T05:44:34;100805.88;;;11.22;77.54
53647;BME280;39550;52.230;5.194;2022-11-03T05:47:02;100788.66;;;11.12;77.44
53647;BME280;39550;52.230;5.194;2022-11-03T05:49:32;100764.53;;;11.01;77.51
53647;BME280;39550;52.230;5.194;2022-11-03T05:51:59;100799.00;;;11.21;77.52
53647;BME280;39550;52.230;5.194;2022-11-03T05:54:26;100757.66;;;10.97;77.56
53647;BME280;39550;52.230;5.194;2022-11-03T05:56:55;100773.13;;;11.06;77.39
53647;BME280;39550;52.230;5.194;2022-11-03T05:59:24;100776.59;;;11.11;77.25
53647;BME280;39550;52.230;5.194;2022-11-03T06:01:52;100788.69;;;11.21;77.88
53647;BME280;39550;52.230;5.194;2022-11-03T06:04:31;100732.69;;;10.93;77.36
53647;BME280;39550;52.230;5.194;2022-11-03T06:07:28;100749.06;;;11.01;78.08
53647;BME280;39550;52.230;5.194;2022-11-03T06:09:57;100649.97;;;10.38;77.94
53647;BME280;39550;52.230;5.194;2022-11-03T06:12:30;100628.47;;;10.36;77.31
53647;BME280;39550;52.230;5.194;2022-11-03T06:14:58;100749.94;;;11.06;77.72
53647;BME280;39550;52.230;5.194;2022-11-03T06:17:27;100716.34;;;10.90;77.60
53647;BME280;39550;52.230;5.194;2022-11-03T06:19:55;100751.66;;;11.12;77.40
53647;BME280;39550;52.230;5.194;2022-11-03T06:22:26;100743.97;;;11.13;77.74
53647;BME280;39550;52.230;5.194;2022-11-03T06:24:55;100768.03;;;11.20;77.84
53647;BME280;39550;52.230;5.194;2022-11-03T06:27:23;100723.25;;;10.95;77.54
53647;BME280;39550;52.230;5.194;2022-11-03T06:30:04;100741.34;;;11.12;77.54
53647;BME280;39550;52.230;5.194;2022-11-03T06:32:38;100734.50;;;11.11;77.58
53647;BME280;39550;52.230;5.194;2022-11-03T06:35:08;100712.06;;;10.93;78.07
53647;BME280;39550;52.230;5.194;2022-11-03T06:37:35;100733.63;;;11.10;77.70
53647;BME280;39550;52.230;5.194;2022-11-03T06:42:36;100736.22;;;11.15;77.57
53647;BME280;39550;52.230;5.194;2022-11-03T06:45:23;100736.25;;;11.18;77.71
53647;BME280;39550;52.230;5.194;2022-11-03T06:47:49;100662.16;;;10.73;77.76
53647;BME280;39550;52.230;5.194;2022-11-03T06:50:34;100721.59;;;11.12;77.89
53647;BME280;39550;52.230;5.194;2022-11-03T06:53:02;100730.22;;;11.20;78.28
53647;BME280;39550;52.230;5.194;2022-11-03T06:55:32;100721.59;;;11.12;77.83
53647;BME280;39550;52.230;5.194;2022-11-03T06:58:02;100733.66;;;11.19;77.72
53647;BME280;39550;52.230;5.194;2022-11-03T07:00:29;100736.25;;;11.19;77.55
53647;BME280;39550;52.230;5.194;2022-11-03T07:05:25;100732.81;;;11.20;77.92
53647;BME280;39550;52.230;5.194;2022-11-03T07:07:54;100713.03;;;11.13;77.67
53647;BME280;39550;52.230;5.194;2022-11-03T07:13:19;100687.16;;;10.92;77.64
53647;BME280;39550;52.230;5.194;2022-11-03T07:15:47;100682.84;;;10.90;78.10
53647;BME280;39550;52.230;5.194;2022-11-03T07:18:23;100688.91;;;11.05;77.51
53647;BME280;39550;52.230;5.194;2022-11-03T07:20:51;100692.34;;;11.01;77.66
53647;BME280;39550;52.230;5.194;2022-11-03T07:23:24;100719.06;;;11.26;77.89
53647;BME280;39550;52.230;5.194;2022-11-03T07:25:57;100723.34;;;11.25;78.08
53647;BME280;39550;52.230;5.194;2022-11-03T07:28:27;100699.25;;;11.08;77.77
53647;BME280;39550;52.230;5.194;2022-11-03T07:30:53;100666.53;;;10.92;77.60
53647;BME280;39550;52.230;5.194;2022-11-03T07:33:21;100719.06;;;11.26;78.11
53647;BME280;39550;52.230;5.194;2022-11-03T07:35:48;100711.28;;;11.12;78.01
53647;BME280;39550;52.230;5.194;2022-11-03T07:38:18;100712.19;;;11.23;78.48
53647;BME280;39550;52.230;5.194;2022-11-03T07:40:44;100700.97;;;11.18;78.33
53647;BME280;39550;52.230;5.194;2022-11-03T07:43:14;100712.19;;;11.23;78.09
53647;BME280;39550;52.230;5.194;2022-11-03T07:45:51;100702.72;;;11.22;78.15
53647;BME280;39550;52.230;5.194;2022-11-03T07:50:48;100668.25;;;10.99;78.26
53647;BME280;39550;52.230;5.194;2022-11-03T07:53:41;100681.16;;;11.02;77.96
53647;BME280;39550;52.230;5.194;2022-11-03T07:56:18;100601.94;;;10.54;77.82
53647;BME280;39550;52.230;5.194;2022-11-03T07:58:43;100578.69;;;10.45;78.08
53647;BME280;39550;52.230;5.194;2022-11-03T08:01:24;100714.75;;;11.30;77.99
53647;BME280;39550;52.230;5.194;2022-11-03T08:03:50;100704.44;;;11.30;78.00
53647;BME280;39550;52.230;5.194;2022-11-03T08:06:19;100679.50;;;11.16;78.14
53647;BME280;39550;52.230;5.194;2022-11-03T08:08:45;100676.91;;;11.16;78.00
53647;BME280;39550;52.230;5.194;2022-11-03T08:11:10;100700.16;;;11.29;78.00
53647;BME280;39550;52.230;5.194;2022-11-03T08:13:35;100673.50;;;11.23;78.07
53647;BME280;39550;52.230;5.194;2022-11-03T08:16:01;100657.97;;;11.08;78.18
53647;BME280;39550;52.230;5.194;2022-11-03T08:18:27;100619.22;;;10.89;77.87
53647;BME280;39550;52.230;5.194;2022-11-03T08:20:52;100670.91;;;11.22;78.04
53647;BME280;39550;52.230;5.194;2022-11-03T08:23:18;100657.13;;;11.14;78.06
53647;BME280;39550;52.230;5.194;2022-11-03T08:25:44;100682.09;;;11.27;78.11
53647;BME280;39550;52.230;5.194;2022-11-03T08:28:09;100660.59;;;11.17;78.29
53647;BME280;39550;52.230;5.194;2022-11-03T08:30:35;100602.91;;;10.87;77.87
53647;BME280;39550;52.230;5.194;2022-11-03T08:33:00;100638.22;;;11.13;78.54
53647;BME280;39550;52.230;5.194;2022-11-03T08:35:25;100656.31;;;11.29;78.18
53647;BME280;39550;52.230;5.194;2022-11-03T08:37:51;100633.94;;;11.31;78.49
53647;BME280;39550;52.230;5.194;2022-11-03T08:40:16;100630.53;;;11.27;78.19
53647;BME280;39550;52.230;5.194;2022-11-03T08:42:42;100625.34;;;11.32;78.28
53647;BME280;39550;52.230;5.194;2022-11-03T08:45:08;100577.16;;;11.03;78.04
53647;BME280;39550;52.230;5.194;2022-11-03T08:47:34;100584.91;;;11.15;77.39
53647;BME280;39550;52.230;5.194;2022-11-03T08:49:59;100547.06;;;10.96;77.76
53647;BME280;39550;52.230;5.194;2022-11-03T08:52:25;100595.25;;;11.23;78.58
53647;BME280;39550;52.230;5.194;2022-11-03T08:54:50;100604.72;;;11.32;77.84
53647;BME280;39550;52.230;5.194;2022-11-03T08:57:15;100529.88;;;10.92;78.30
53647;BME280;39550;52.230;5.194;2022-11-03T08:59:41;100609.00;;;11.40;77.01
53647;BME280;39550;52.230;5.194;2022-11-03T09:02:06;100592.69;;;11.35;77.64
53647;BME280;39550;52.230;5.194;2022-11-03T09:04:31;100596.13;;;11.40;77.38
53647;BME280;39550;52.230;5.194;2022-11-03T09:06:57;100565.16;;;11.27;78.04
53647;BME280;39550;52.230;5.194;2022-11-03T09:09:22;100575.50;;;11.33;77.84
53647;BME280;39550;52.230;5.194;2022-11-03T09:11:47;100578.91;;;11.47;77.54
53647;BME280;39550;52.230;5.194;2022-11-03T09:14:13;100563.44;;;11.44;77.80
53647;BME280;39550;52.230;5.194;2022-11-03T09:16:38;100551.38;;;11.46;78.07
53647;BME280;39550;52.230;5.194;2022-11-03T09:19:04;100547.09;;;11.48;77.53
53647;BME280;39550;52.230;5.194;2022-11-03T09:21:29;100547.97;;;11.41;77.74
53647;BME280;39550;52.230;5.194;2022-11-03T09:23:54;100540.22;;;11.44;78.14
53647;BME280;39550;52.230;5.194;2022-11-03T09:26:20;100526.47;;;11.36;77.85
53647;BME280;39550;52.230;5.194;2022-11-03T09:28:46;100544.53;;;11.48;78.04
53647;BME280;39550;52.230;5.194;2022-11-03T09:31:11;100525.63;;;11.37;77.76
53647;BME280;39550;52.230;5.194;2022-11-03T09:33:36;100523.88;;;11.48;78.28
53647;BME280;39550;52.230;5.194;2022-11-03T09:36:02;100498.09;;;11.39;77.92
53647;BME280;39550;52.230;5.194;2022-11-03T09:38:27;100510.13;;;11.40;77.77
53647;BME280;39550;52.230;5.194;2022-11-03T09:40:53;100501.50;;;11.47;78.02
53647;BME280;39550;52.230;5.194;2022-11-03T09:43:19;100498.06;;;11.42;78.02
53647;BME280;39550;52.230;5.194;2022-11-03T09:45:44;100499.78;;;11.46;78.17
53647;BME280;39550;52.230;5.194;2022-11-03T09:48:11;100473.13;;;11.36;77.96
53647;BME280;39550;52.230;5.194;2022-11-03T09:50:37;100487.75;;;11.48;78.46
53647;BME280;39550;52.230;5.194;2022-11-03T09:53:03;100465.41;;;11.35;77.81
53647;BME280;39550;52.230;5.194;2022-11-03T09:55:28;100479.16;;;11.43;78.10
53647;BME280;39550;52.230;5.194;2022-11-03T09:57:56;100468.84;;;11.49;77.73
53647;BME280;39550;52.230;5.194;2022-11-03T10:00:23;100475.69;;;11.49;77.21
53647;BME280;39550;52.230;5.194;2022-11-03T10:02:49;100480.88;;;11.53;77.90
53647;BME280;39550;52.230;5.194;2022-11-03T10:05:27;100462.81;;;11.49;77.73
53647;BME280;39550;52.230;5.194;2022-11-03T10:07:56;100468.84;;;11.49;77.78
53647;BME280;39550;52.230;5.194;2022-11-03T10:10:23;100437.91;;;11.38;77.98
53647;BME280;39550;52.230;5.194;2022-11-03T10:12:49;100441.31;;;11.47;78.06
53647;BME280;39550;52.230;5.194;2022-11-03T10:15:21;100432.69;;;11.46;77.73
53647;BME280;39550;52.230;5.194;2022-11-03T10:17:47;100437.00;;;11.53;77.80
53647;BME280;39550;52.230;5.194;2022-11-03T10:20:17;100433.59;;;11.47;77.63
53647;BME280;39550;52.230;5.194;2022-11-03T10:22:44;100439.59;;;11.53;77.81
53647;BME280;39550;52.230;5.194;2022-11-03T10:25:39;100430.97;;;11.54;77.67
53647;BME280;39550;52.230;5.194;2022-11-03T10:30:49;100425.81;;;11.54;77.62
53647;BME280;39550;52.230;5.194;2022-11-03T10:33:32;100405.19;;;11.48;77.32
53647;BME280;39550;52.230;5.194;2022-11-03T10:36:04;100412.03;;;11.55;77.73
53647;BME280;39550;52.230;5.194;2022-11-03T10:38:34;100397.41;;;11.54;77.54
53647;BME280;39550;52.230;5.194;2022-11-03T10:43:38;100399.13;;;11.58;77.54
53647;BME280;39550;52.230;5.194;2022-11-03T10:46:20;100387.09;;;11.59;77.36
53647;BME280;39550;52.230;5.194;2022-11-03T10:51:30;100372.47;;;11.56;77.36
53647;BME280;39550;52.230;5.194;2022-11-03T10:53:56;100373.34;;;11.55;77.37
53647;BME280;39550;52.230;5.194;2022-11-03T10:56:21;100360.41;;;11.58;77.54
53647;BME280;39550;52.230;5.194;2022-11-03T10:58:47;100321.81;;;11.34;77.56
53647;BME280;39550;52.230;5.194;2022-11-03T11:01:13;100349.28;;;11.53;77.66
53647;BME280;39550;52.230;5.194;2022-11-03T11:03:41;100341.50;;;11.56;77.58
53647;BME280;39550;52.230;5.194;2022-11-03T11:06:27;100344.94;;;11.62;77.72
53647;BME280;39550;52.230;5.194;2022-11-03T11:08:58;100352.66;;;11.65;77.49
53647;BME280;39550;52.230;5.194;2022-11-03T11:11:24;100314.03;;;11.49;77.51
53647;BME280;39550;52.230;5.194;2022-11-03T11:17:04;100298.50;;;11.55;77.28
53647;BME280;39550;52.230;5.194;2022-11-03T11:22:33;100328.53;;;11.72;77.35
53647;BME280;39550;52.230;5.194;2022-11-03T11:24:59;100298.50;;;11.54;77.16
53647;BME280;39550;52.230;5.194;2022-11-03T11:30:04;100310.47;;;11.69;77.04
53647;BME280;39550;52.230;5.194;2022-11-03T11:37:55;100299.28;;;11.67;76.66
53647;BME280;39550;52.230;5.194;2022-11-03T11:48:32;100264.94;;;11.62;76.80
53647;BME280;39550;52.230;5.194;2022-11-03T11:50:59;100270.88;;;11.73;76.92
53647;BME280;39550;52.230;5.194;2022-11-03T11:53:26;100248.53;;;11.66;76.69
53647;BME280;39550;52.230;5.194;2022-11-03T11:55:57;100262.28;;;11.75;76.86
53647;BME280;39550;52.230;5.194;2022-11-03T11:58:42;100267.41;;;11.77;77.32
53647;BME280;39550;52.230;5.194;2022-11-03T12:01:30;100246.81;;;11.69;76.98
53647;BME280;39550;52.230;5.194;2022-11-03T12:03:59;100238.22;;;11.66;77.43
53647;BME280;39550;52.230;5.194;2022-11-03T12:06:36;100224.44;;;11.67;77.25
53647;BME280;39550;52.230;5.194;2022-11-03T12:09:16;100237.25;;;11.84;76.44
53647;BME280;39550;52.230;5.194;2022-11-03T12:11:52;100229.50;;;11.85;76.86
53647;BME280;39550;52.230;5.194;2022-11-03T12:16:56;100217.47;;;11.84;76.55
53647;BME280;39550;52.230;5.194;2022-11-03T12:19:41;100208.88;;;11.84;77.07
53647;BME280;39550;52.230;5.194;2022-11-03T12:24:51;100201.13;;;11.81;76.66
53647;BME280;39550;52.230;5.194;2022-11-03T12:29:54;100177.97;;;11.70;76.94
53647;BME280;39550;52.230;5.194;2022-11-03T12:32:20;100188.22;;;11.79;76.63
53647;BME280;39550;52.230;5.194;2022-11-03T12:34:46;100156.53;;;11.65;76.85
53647;BME280;39550;52.230;5.194;2022-11-03T12:37:11;100173.63;;;11.76;76.81
53647;BME280;39550;52.230;5.194;2022-11-03T12:39:37;100140.25;;;11.56;76.46
53647;BME280;39550;52.230;5.194;2022-11-03T12:42:02;100180.50;;;11.79;76.75
53647;BME280;39550;52.230;5.194;2022-11-03T12:44:28;100140.19;;;11.63;76.94
53647;BME280;39550;52.230;5.194;2022-11-03T12:46:53;100160.69;;;11.81;76.61
53647;BME280;39550;52.230;5.194;2022-11-03T12:49:18;100150.38;;;11.76;77.02
53647;BME280;39550;52.230;5.194;2022-11-03T12:51:43;100138.34;;;11.77;76.83
53647;BME280;39550;52.230;5.194;2022-11-03T12:54:09;100149.47;;;11.82;76.66
53647;BME280;39550;52.230;5.194;2022-11-03T12:56:34;100144.34;;;11.79;76.60
53647;BME280;39550;52.230;5.194;2022-11-03T12:59:00;100123.69;;;11.79;76.69
53647;BME280;39550;52.230;5.194;2022-11-03T13:01:25;100135.66;;;11.91;76.63
53647;BME280;39550;52.230;5.194;2022-11-03T13:03:51;100124.44;;;11.90;76.88
53647;BME280;39550;52.230;5.194;2022-11-03T13:06:16;100126.94;;;12.03;76.51
53647;BME280;39550;52.230;5.194;2022-11-03T13:08:41;100113.25;;;11.98;76.37
53647;BME280;39550;52.230;5.194;2022-11-03T13:11:07;100115.75;;;12.04;76.48
53647;BME280;39550;52.230;5.194;2022-11-03T13:13:52;100095.06;;;12.07;76.20
53647;BME280;39550;52.230;5.194;2022-11-03T13:16:17;100086.50;;;12.05;76.32
53647;BME280;39550;52.230;5.194;2022-11-03T13:18:43;100079.59;;;12.04;75.98
53647;BME280;39550;52.230;5.194;2022-11-03T13:21:08;100091.63;;;12.08;76.41
53647;BME280;39550;52.230;5.194;2022-11-03T13:23:34;100081.34;;;12.00;76.65
53647;BME280;39550;52.230;5.194;2022-11-03T13:25:59;100067.69;;;11.87;76.69
53647;BME280;39550;52.230;5.194;2022-11-03T13:28:24;100048.81;;;11.82;76.31
53647;BME280;39550;52.230;5.194;2022-11-03T13:30:49;100052.19;;;11.87;76.26
53647;BME280;39550;52.230;5.194;2022-11-03T13:33:15;100033.22;;;11.91;75.91
53647;BME280;39550;52.230;5.194;2022-11-03T13:35:40;100043.53;;;11.98;76.40
53647;BME280;39550;52.230;5.194;2022-11-03T13:38:05;100050.38;;;11.99;76.29
53647;BME280;39550;52.230;5.194;2022-11-03T13:40:30;100030.63;;;11.98;75.97
53647;BME280;39550;52.230;5.194;2022-11-03T13:42:56;100004.94;;;11.84;76.60
53647;BME280;39550;52.230;5.194;2022-11-03T13:45:21;100026.34;;;11.93;76.74
53647;BME280;39550;52.230;5.194;2022-11-03T13:47:47;100011.72;;;11.92;76.47
53647;BME280;39550;52.230;5.194;2022-11-03T13:50:13;99997.91;;;11.92;76.40
53647;BME280;39550;52.230;5.194;2022-11-03T13:52:38;99964.66;;;11.69;76.53
53647;BME280;39550;52.230;5.194;2022-11-03T13:55:04;99992.00;;;11.85;76.27
53647;BME280;39550;52.230;5.194;2022-11-03T13:57:29;100020.28;;;11.96;76.70
53647;BME280;39550;52.230;5.194;2022-11-03T13:59:54;100006.56;;;11.91;76.90
53647;BME280;39550;52.230;5.194;2022-11-03T14:02:20;100004.91;;;11.82;76.56
53647;BME280;39550;52.230;5.194;2022-11-03T14:04:45;99993.03;;;11.69;76.18
53647;BME280;39550;52.230;5.194;2022-11-03T14:07:11;100016.00;;;11.90;77.19